Main page
METAR-TAF:

METAR-TAF

Airports :

Vannes Airport

Vannes, France

latitude: 47-43-19N, longitude: 2-43-41W, elevation: 130 m

Current weather observation

The report was made 15 minutes ago, at 00:00 UTC
Wind 4 kt from the North/Northwest
Temperature 3°C
Humidity 93%
Pressure 1013 hPa
Visibility: 7000 m
Broken clouds at a height of 2200 ft
Broken clouds at a height of 2700 ft
Overcast at a height of 6600 ft

METAR: LFRV 180000Z AUTO 33004KT 7000 BKN022 BKN027 OVC066 03/02 Q1013

Time: 01:15 (00:15 UTC)


TAF: missing

Weather observations and forecasts of more than 4000 airports (METAR and TAF reports).

The available stations are represented by yellow and red dots on the map.

Hover mouse over dot to see the name of the station.

Then click to see weather observations and forecasts.

To change the map : click on the green buttons with a black cross to zoom in, on the green button with a dash to zoom out, or on the green arrows for adjacent maps.


METAR-TAF: